Terminal Aerodrome Forecast
Issued by NWS Pittsburgh, PA

Current Version | Previous Version | Graphics & Text | Print | Product List | Glossary On
Versions: 1 2 3 4 5 6 7 8 9 10 11 12 13 14 15 16 17 18 19 20 21 22 23 24 25 26 27 28 29 30 31 32 33 34 35 36 37
000
FTUS41 KPBZ 122334
TAFPIT
TAF
KPIT 122334Z 1300/1406 30015G28KT P6SM -SHSN BKN035
     FM130300 28013G22KT P6SM BKN040
     FM132100 26009KT 2SM -SN BKN020
     FM132300 24006KT 1/2SM SN BKN008=

USA.gov is the U.S. government's official web portal to all federal, state and local government web resources and services.